createdAt,value
2018-04-19T00:01:04.766Z,18.52
2018-04-19T00:03:32.684Z,18.97
2018-04-19T00:06:00.348Z,14.80
2018-04-19T00:08:27.964Z,15.05
2018-04-19T00:10:55.621Z,13.70
2018-04-19T00:13:23.240Z,15.17
2018-04-19T00:15:50.896Z,15.23
2018-04-19T00:18:18.529Z,14.87
2018-04-19T00:20:46.229Z,14.60
2018-04-19T00:23:13.836Z,16.23
2018-04-19T00:25:41.488Z,18.50
2018-04-19T00:28:09.154Z,15.05
2018-04-19T00:30:36.768Z,17.50
2018-04-19T00:33:04.997Z,14.55
2018-04-19T00:35:32.616Z,19.87
2018-04-19T00:38:00.273Z,14.57
2018-04-19T00:40:27.944Z,13.75
2018-04-19T00:42:55.559Z,14.10
2018-04-19T00:45:23.219Z,13.02
2018-04-19T00:47:51.060Z,13.70
2018-04-19T00:50:18.718Z,12.20
2018-04-19T00:52:58.380Z,13.73
2018-04-19T00:55:26.639Z,13.87
2018-04-19T00:57:54.262Z,11.23
2018-04-19T01:00:21.931Z,11.80
2018-04-19T01:02:49.599Z,12.67
2018-04-19T01:05:17.257Z,14.53
2018-04-19T01:07:44.912Z,10.80
2018-04-19T01:10:12.638Z,14.20
2018-04-19T01:12:40.239Z,13.87
2018-04-19T01:15:08.687Z,12.83
2018-04-19T01:17:36.343Z,12.30
2018-04-19T01:20:04.752Z,20.37
2018-04-19T01:22:32.367Z,18.67
2018-04-19T01:25:01.543Z,13.40
2018-04-19T01:27:29.207Z,13.60
2018-04-19T01:29:56.832Z,13.60
2018-04-19T01:32:24.487Z,13.30
2018-04-19T01:34:52.111Z,19.40
2018-04-19T01:37:19.767Z,18.08
2018-04-19T01:39:48.156Z,14.03
2018-04-19T01:42:15.828Z,12.10
2018-04-19T01:44:44.255Z,14.93
2018-04-19T01:47:11.880Z,14.63
2018-04-19T01:49:39.530Z,17.97
2018-04-19T01:52:07.147Z,19.50
2018-04-19T01:54:35.533Z,19.90
2018-04-19T01:57:03.369Z,18.67
2018-04-19T01:59:31.015Z,13.50
2018-04-19T02:01:58.671Z,15.13
2018-04-19T02:04:26.327Z,16.60
2018-04-19T02:06:54.578Z,24.57
2018-04-19T02:09:22.199Z,18.73
2018-04-19T02:11:49.855Z,24.33
2018-04-19T02:14:17.467Z,24.40
2018-04-19T02:16:45.124Z,24.50
2018-04-19T02:19:12.854Z,22.97
2018-04-19T02:21:40.454Z,19.50
2018-04-19T02:24:08.115Z,20.40
2018-04-19T02:26:35.731Z,18.87
2018-04-19T02:29:03.592Z,19.95
2018-04-19T02:31:31.243Z,17.57
2018-04-19T02:33:58.863Z,19.60
2018-04-19T02:36:26.571Z,18.70
2018-04-19T02:38:54.200Z,23.00
2018-04-19T02:41:21.855Z,29.03
2018-04-19T02:43:49.639Z,22.65
2018-04-19T02:46:17.665Z,23.57
2018-04-19T02:48:46.621Z,22.52
2018-04-19T02:51:14.245Z,20.10
2018-04-19T02:53:41.940Z,20.77
2018-04-19T02:56:09.571Z,18.97
2018-04-19T02:58:37.231Z,17.23
2018-04-19T03:01:04.890Z,24.50
2018-04-19T03:03:32.532Z,16.03
2018-04-19T03:06:00.183Z,23.70
2018-04-19T03:08:27.800Z,19.73
2018-04-19T03:10:55.440Z,19.10
2018-04-19T03:13:23.099Z,19.87
2018-04-19T03:15:50.707Z,22.20
2018-04-19T03:18:19.127Z,20.20
2018-04-19T03:20:46.751Z,20.02
2018-04-19T03:23:14.407Z,18.20
2018-04-19T03:25:42.823Z,26.15
2018-04-19T03:28:10.443Z,24.20
2018-04-19T03:30:38.095Z,21.13
2018-04-19T03:33:05.756Z,24.00
2018-04-19T03:35:33.415Z,19.30
2018-04-19T03:38:01.064Z,19.53
2018-04-19T03:40:28.775Z,19.75
2018-04-19T03:42:56.435Z,15.10
2018-04-19T03:45:24.050Z,25.25
2018-04-19T03:47:52.439Z,20.80
2018-04-19T03:50:20.804Z,23.17
2018-04-19T03:52:48.533Z,17.83
2018-04-19T03:55:16.199Z,16.25
2018-04-19T03:57:43.979Z,19.37
2018-04-19T04:00:11.599Z,15.23
2018-04-19T04:02:39.502Z,18.23
2018-04-19T04:05:07.119Z,15.00
2018-04-19T04:07:34.779Z,17.40
2018-04-19T04:10:02.402Z,21.33
2018-04-19T04:12:30.060Z,16.13
2018-04-19T04:14:57.675Z,15.98
2018-04-19T04:17:37.232Z,16.53
2018-04-19T04:20:17.964Z,20.60
2018-04-19T04:22:58.105Z,20.37
2018-04-19T04:25:25.771Z,20.33
2018-04-19T04:27:54.631Z,17.10
2018-04-19T04:30:24.036Z,16.00
2018-04-19T04:32:51.705Z,19.77
2018-04-19T04:35:21.144Z,16.80
2018-04-19T04:37:49.001Z,18.60
2018-04-19T04:40:16.631Z,18.43
2018-04-19T04:42:45.015Z,16.33
2018-04-19T04:45:12.721Z,23.60
2018-04-19T04:47:43.496Z,53.22
2018-04-19T04:50:12.247Z,26.20
2018-04-19T04:52:40.818Z,22.13
2018-04-19T04:55:08.484Z,21.87
2018-04-19T04:57:36.989Z,16.35
2018-04-19T05:00:05.936Z,15.67
2018-04-19T05:02:33.567Z,14.43
2018-04-19T05:05:01.184Z,18.70
2018-04-19T05:07:30.659Z,17.77
2018-04-19T05:09:58.283Z,14.17
2018-04-19T05:12:25.955Z,16.23
2018-04-19T05:14:53.585Z,18.60
2018-04-19T05:17:22.056Z,11.77
2018-04-19T05:19:53.879Z,11.70
2018-04-19T05:22:21.699Z,14.45
2018-04-19T05:24:49.351Z,13.00
2018-04-19T05:27:18.822Z,10.52
2018-04-19T05:29:47.862Z,11.87
2018-04-19T05:32:15.519Z,13.55
2018-04-19T05:34:43.900Z,12.18
2018-04-19T05:37:12.356Z,11.35
2018-04-19T05:39:40.775Z,10.93
2018-04-19T05:42:08.395Z,11.13
2018-04-19T05:44:36.662Z,11.57
2018-04-19T05:47:04.337Z,9.17
2018-04-19T05:49:33.261Z,10.13
2018-04-19T05:52:03.944Z,11.27
2018-04-19T05:54:32.635Z,15.80
2018-04-19T05:57:01.843Z,9.77
2018-04-19T05:59:30.231Z,11.63
2018-04-19T06:01:57.972Z,12.03
2018-04-19T06:04:26.399Z,11.13
2018-04-19T06:06:54.080Z,12.03
2018-04-19T06:09:21.743Z,11.70
2018-04-19T06:11:49.407Z,10.20
2018-04-19T06:14:17.028Z,9.17
2018-04-19T06:16:44.912Z,14.40
2018-04-19T06:19:12.529Z,10.67
2018-04-19T06:21:40.184Z,10.97
2018-04-19T06:24:08.487Z,12.57
2018-04-19T06:26:36.151Z,11.90
2018-04-19T06:29:03.788Z,12.60
2018-04-19T06:31:31.455Z,11.10
2018-04-19T06:33:59.276Z,12.23
2018-04-19T06:36:26.911Z,15.10
2018-04-19T06:38:54.567Z,11.37
2018-04-19T06:41:22.377Z,11.93
2018-04-19T06:43:50.219Z,12.33
2018-04-19T06:46:17.840Z,15.67
2018-04-19T06:48:45.519Z,13.07
2018-04-19T06:51:13.146Z,13.37
2018-04-19T06:53:41.577Z,10.63
2018-04-19T06:56:09.187Z,12.40
2018-04-19T06:58:37.623Z,12.67
2018-04-19T07:01:05.282Z,11.10
2018-04-19T07:03:34.851Z,12.87
2018-04-19T07:06:02.519Z,11.93
2018-04-19T07:08:30.138Z,12.03
2018-04-19T07:10:57.791Z,13.13
2018-04-19T07:13:25.743Z,15.10
2018-04-19T07:15:53.422Z,13.73
2018-04-19T07:18:21.084Z,13.20
2018-04-19T07:20:50.455Z,12.73
2018-04-19T07:23:18.159Z,14.03
2018-04-19T07:25:45.817Z,14.60
2018-04-19T07:28:13.854Z,18.02
2018-04-19T07:30:41.474Z,14.25
2018-04-19T07:33:09.111Z,14.17
2018-04-19T07:35:37.538Z,12.73
2018-04-19T07:38:05.218Z,14.00
2018-04-19T07:40:32.980Z,14.17
2018-04-19T07:43:00.604Z,15.47
2018-04-19T07:45:28.509Z,15.30
2018-04-19T07:47:56.148Z,13.47
2018-04-19T07:50:23.785Z,17.13
2018-04-19T07:52:51.576Z,14.33
2018-04-19T07:55:19.232Z,12.37
2018-04-19T07:57:46.892Z,17.43
2018-04-19T08:00:14.878Z,13.07
2018-04-19T08:02:42.535Z,17.00
2018-04-19T08:05:10.191Z,14.63
2018-04-19T08:07:37.849Z,12.73
2018-04-19T08:10:05.510Z,14.97
2018-04-19T08:12:33.118Z,14.67
2018-04-19T08:15:00.783Z,16.07
2018-04-19T08:17:29.227Z,15.23
2018-04-19T08:19:56.862Z,14.10
2018-04-19T08:22:24.522Z,16.23
2018-04-19T08:24:52.151Z,16.47
2018-04-19T08:27:19.827Z,15.17
2018-04-19T08:29:47.623Z,12.77
2018-04-19T08:32:15.280Z,15.30
2018-04-19T08:34:42.939Z,15.00
2018-04-19T08:37:10.557Z,18.37
2018-04-19T08:39:38.227Z,16.43
2018-04-19T08:42:06.567Z,22.73
2018-04-19T08:44:34.317Z,15.57
2018-04-19T08:47:01.975Z,18.00
2018-04-19T08:49:29.635Z,15.80
2018-04-19T08:51:57.303Z,17.10
2018-04-19T08:54:24.943Z,21.90
2018-04-19T08:56:52.595Z,16.40
2018-04-19T08:59:20.251Z,19.67
2018-04-19T09:01:47.905Z,15.10
2018-04-19T09:04:15.517Z,18.27
2018-04-19T09:06:43.203Z,19.10
2018-04-19T09:09:10.820Z,15.93
2018-04-19T09:11:38.438Z,13.60
2018-04-19T09:14:06.824Z,17.60
2018-04-19T09:16:34.484Z,14.47
2018-04-19T09:19:02.148Z,16.57
2018-04-19T09:21:29.992Z,15.03
2018-04-19T09:23:57.648Z,16.97
2018-04-19T09:26:25.300Z,18.63
2018-04-19T09:28:52.958Z,22.63
2018-04-19T09:31:20.777Z,18.53
2018-04-19T09:33:48.444Z,13.33
2018-04-19T09:36:16.071Z,16.60
2018-04-19T09:38:43.723Z,19.27
2018-04-19T09:41:11.384Z,15.80
2018-04-19T09:43:39.012Z,14.20
2018-04-19T09:46:07.451Z,14.53
2018-04-19T09:48:35.078Z,12.80
2018-04-19T09:51:02.736Z,14.67
2018-04-19T09:53:30.392Z,14.87
2018-04-19T09:55:58.008Z,15.30
2018-04-19T09:58:25.672Z,16.97
2018-04-19T10:00:58.926Z,18.27
2018-04-19T10:03:26.609Z,17.93
2018-04-19T10:06:00.002Z,15.67
2018-04-19T10:08:27.669Z,17.13
2018-04-19T10:10:55.322Z,21.67
2018-04-19T10:13:22.976Z,17.87
2018-04-19T10:15:50.650Z,18.43
2018-04-19T10:18:18.501Z,16.80
2018-04-19T10:20:46.123Z,19.10
2018-04-19T10:23:13.743Z,16.83
2018-04-19T10:25:41.400Z,17.40
2018-04-19T10:28:10.387Z,17.17
2018-04-19T10:30:38.703Z,16.50
2018-04-19T10:33:06.321Z,17.23
2018-04-19T10:35:34.753Z,19.50
2018-04-19T10:38:02.371Z,17.33
2018-04-19T10:40:30.034Z,18.27
2018-04-19T10:42:57.659Z,16.60
2018-04-19T10:45:25.316Z,18.03
2018-04-19T10:47:52.928Z,18.43
2018-04-19T10:50:20.591Z,16.23
2018-04-19T10:52:48.983Z,15.60
2018-04-19T10:55:16.655Z,14.70
2018-04-19T10:57:44.461Z,14.73
2018-04-19T11:00:12.351Z,18.77
2018-04-19T11:02:39.975Z,14.10
2018-04-19T11:05:07.819Z,14.80
2018-04-19T11:07:35.438Z,16.40
2018-04-19T11:10:03.272Z,16.20
2018-04-19T11:12:31.125Z,16.73
2018-04-19T11:14:58.747Z,16.47
2018-04-19T11:17:26.372Z,16.57
2018-04-19T11:19:54.984Z,18.07
2018-04-19T11:22:22.800Z,12.90
2018-04-19T11:24:50.463Z,20.27
2018-04-19T11:27:18.127Z,16.13
2018-04-19T11:29:45.758Z,15.07
2018-04-19T11:32:13.417Z,15.47
2018-04-19T11:34:41.067Z,12.70
2018-04-19T11:37:08.967Z,14.67
2018-04-19T11:39:36.590Z,13.87
2018-04-19T11:42:04.215Z,12.10
2018-04-19T11:44:32.697Z,15.80
2018-04-19T11:47:00.373Z,13.10
2018-04-19T11:49:28.048Z,16.52
2018-04-19T11:51:55.704Z,12.63
2018-04-19T11:54:23.336Z,15.17
2018-04-19T11:56:51.770Z,12.43
2018-04-19T11:59:19.420Z,14.90
2018-04-19T12:01:47.389Z,13.43
2018-04-19T12:04:15.004Z,9.47
2018-04-19T12:06:42.685Z,10.93
2018-04-19T12:09:10.303Z,11.68
2018-04-19T12:11:37.968Z,12.90
2018-04-19T12:14:05.593Z,14.57
2018-04-19T12:16:33.360Z,15.03
2018-04-19T12:19:00.977Z,14.60
2018-04-19T12:21:28.635Z,9.43
2018-04-19T12:23:56.255Z,10.93
2018-04-19T12:26:25.495Z,10.40
2018-04-19T12:28:53.155Z,10.90
2018-04-19T12:31:20.763Z,12.57
2018-04-19T12:33:48.375Z,9.60
2018-04-19T12:36:16.025Z,11.10
2018-04-19T12:38:44.406Z,10.73
2018-04-19T12:41:13.493Z,12.50
2018-04-19T12:43:41.111Z,12.20
2018-04-19T12:46:09.539Z,9.80
2018-04-19T12:48:37.931Z,9.33
2018-04-19T12:51:05.583Z,11.13
2018-04-19T12:53:33.198Z,10.50
2018-04-19T12:56:00.844Z,10.80
2018-04-19T12:58:28.507Z,11.50
2018-04-19T13:00:56.332Z,7.23
2018-04-19T13:03:23.983Z,9.83
2018-04-19T13:05:51.603Z,8.23
2018-04-19T13:08:19.479Z,11.98
2018-04-19T13:10:47.140Z,10.20
2018-04-19T13:13:14.797Z,8.23
2018-04-19T13:15:42.413Z,9.97
2018-04-19T13:18:11.400Z,8.07
2018-04-19T13:20:39.761Z,9.10
2018-04-19T13:23:07.388Z,10.93
2018-04-19T13:25:36.574Z,9.67
2018-04-19T13:28:04.200Z,7.20
2018-04-19T13:30:31.872Z,12.60
2018-04-19T13:32:59.492Z,9.80
2018-04-19T13:35:27.920Z,8.10
2018-04-19T13:37:55.532Z,8.03
2018-04-19T13:40:23.198Z,10.87
2018-04-19T13:42:50.859Z,11.93
2018-04-19T13:45:18.517Z,8.83
2018-04-19T13:47:46.132Z,8.40
2018-04-19T13:50:13.779Z,8.77
2018-04-19T13:52:41.432Z,12.23
2018-04-19T13:55:09.080Z,8.60
2018-04-19T13:57:36.704Z,10.03
2018-04-19T14:00:04.347Z,9.52
2018-04-19T14:02:32.003Z,12.00
2018-04-19T14:04:59.620Z,6.83
2018-04-19T14:07:27.316Z,9.10
2018-04-19T14:09:54.943Z,8.27
2018-04-19T14:12:22.595Z,7.77
2018-04-19T14:14:50.279Z,10.03
2018-04-19T14:17:17.931Z,8.23
2018-04-19T14:19:45.591Z,7.33
2018-04-19T14:22:13.284Z,9.17
2018-04-19T14:24:40.898Z,7.60
2018-04-19T14:27:09.337Z,7.73
2018-04-19T14:29:37.164Z,6.10
2018-04-19T14:32:04.803Z,9.43
2018-04-19T14:34:32.467Z,7.70
2018-04-19T14:37:00.081Z,8.13
2018-04-19T14:39:27.692Z,8.47
2018-04-19T14:41:55.353Z,9.10
2018-04-19T14:44:22.959Z,7.93
2018-04-19T14:46:50.619Z,8.73
2018-04-19T14:49:18.321Z,6.97
2018-04-19T14:51:46.685Z,6.40
2018-04-19T14:54:14.474Z,10.67
2018-04-19T14:56:42.119Z,11.23
2018-04-19T14:59:09.732Z,8.00
2018-04-19T15:01:37.376Z,9.40
2018-04-19T15:04:05.586Z,7.60
2018-04-19T15:06:33.524Z,7.00
2018-04-19T15:09:01.150Z,11.07
2018-04-19T15:11:28.800Z,7.77
2018-04-19T15:13:56.797Z,7.83
2018-04-19T15:16:24.450Z,7.63
2018-04-19T15:18:52.119Z,7.87
2018-04-19T15:21:19.742Z,8.43
2018-04-19T15:23:47.372Z,5.53
2018-04-19T15:26:15.202Z,8.47
2018-04-19T15:28:42.840Z,10.13
2018-04-19T15:31:11.089Z,8.10
2018-04-19T15:33:38.756Z,9.37
2018-04-19T15:36:06.964Z,8.23
2018-04-19T15:38:34.612Z,6.90
2018-04-19T15:41:02.509Z,5.77
2018-04-19T15:43:30.197Z,8.17
2018-04-19T15:45:57.860Z,7.93
2018-04-19T15:48:26.284Z,6.20
2018-04-19T15:50:53.911Z,7.50
2018-04-19T15:53:22.337Z,4.93
2018-04-19T15:55:50.050Z,8.17
2018-04-19T15:58:18.497Z,6.32
2018-04-19T16:00:46.915Z,6.30
2018-04-19T16:03:15.117Z,6.87
2018-04-19T16:05:44.309Z,6.50
2018-04-19T16:08:12.927Z,6.25
2018-04-19T16:10:40.576Z,5.87
2018-04-19T16:13:12.330Z,7.07
2018-04-19T16:15:39.995Z,9.30
2018-04-19T16:18:08.779Z,6.20
2018-04-19T16:20:36.427Z,6.53
2018-04-19T16:23:04.038Z,5.20
2018-04-19T16:25:32.688Z,8.73
2018-04-19T16:28:00.299Z,9.87
2018-04-19T16:30:28.559Z,7.23
2018-04-19T16:32:57.170Z,5.93
2018-04-19T16:35:24.828Z,6.10
2018-04-19T16:37:52.448Z,8.37
2018-04-19T16:40:20.914Z,8.67
2018-04-19T16:42:48.583Z,7.10
2018-04-19T16:45:17.248Z,9.73
2018-04-19T16:47:44.859Z,8.97
2018-04-19T16:50:12.579Z,10.00
2018-04-19T16:52:40.216Z,8.63
2018-04-19T16:55:07.985Z,6.47
2018-04-19T16:57:35.651Z,9.67
2018-04-19T17:00:03.279Z,7.45
2018-04-19T17:02:30.931Z,6.83
2018-04-19T17:04:58.601Z,9.70
2018-04-19T17:07:26.268Z,8.30
2018-04-19T17:09:53.963Z,10.90
2018-04-19T17:12:22.267Z,8.10
2018-04-19T17:14:49.989Z,7.77
2018-04-19T17:17:17.576Z,7.30
2018-04-19T17:19:45.970Z,10.55
2018-04-19T17:22:13.643Z,6.23
2018-04-19T17:24:41.265Z,9.90
2018-04-19T17:27:09.656Z,6.43
2018-04-19T17:29:37.307Z,7.90
2018-04-19T17:32:05.687Z,7.03
2018-04-19T17:34:34.989Z,7.50
2018-04-19T17:37:02.601Z,8.73
2018-04-19T17:39:30.212Z,8.13
2018-04-19T17:41:58.638Z,9.87
2018-04-19T17:44:26.249Z,7.40
2018-04-19T17:46:53.903Z,8.00
2018-04-19T17:49:21.632Z,7.90
2018-04-19T17:51:49.286Z,10.17
2018-04-19T17:54:16.891Z,7.40
2018-04-19T17:56:44.548Z,6.47
2018-04-19T17:59:12.190Z,6.90
2018-04-19T18:01:39.814Z,7.70
2018-04-19T18:04:07.463Z,6.67
2018-04-19T18:06:35.088Z,10.27
2018-04-19T18:09:02.765Z,7.03
2018-04-19T18:11:30.393Z,7.27
2018-04-19T18:13:58.016Z,7.37
2018-04-19T18:16:26.484Z,8.45
2018-04-19T18:18:54.109Z,7.53
2018-04-19T18:21:23.097Z,8.20
2018-04-19T18:23:51.755Z,6.77
2018-04-19T18:26:19.510Z,6.95
2018-04-19T18:28:47.159Z,6.75
2018-04-19T18:31:14.779Z,7.50
2018-04-19T18:33:42.431Z,9.05
2018-04-19T18:36:10.262Z,14.50
2018-04-19T18:38:37.913Z,7.80
2018-04-19T18:41:05.527Z,10.10
2018-04-19T18:43:33.171Z,7.85
2018-04-19T18:46:00.784Z,8.30
2018-04-19T18:48:28.453Z,7.97
2018-04-19T18:50:56.067Z,7.83
2018-04-19T18:53:23.694Z,8.18
2018-04-19T18:55:51.345Z,10.73
2018-04-19T18:58:19.004Z,8.98
2018-04-19T19:00:46.643Z,8.67
2018-04-19T19:03:14.302Z,11.12
2018-04-19T19:05:41.968Z,12.00
2018-04-19T19:08:10.300Z,11.40
2018-04-19T19:10:38.752Z,11.13
2018-04-19T19:13:06.378Z,12.40
2018-04-19T19:18:54.453Z,12.00
2018-04-19T19:21:22.102Z,12.43
2018-04-19T19:23:49.720Z,12.23
2018-04-19T19:26:17.767Z,13.23
2018-04-19T19:28:46.198Z,12.70
2018-04-19T19:31:13.807Z,11.60
2018-04-19T19:33:41.458Z,10.90
2018-04-19T19:36:10.001Z,12.65
2018-04-19T19:38:37.675Z,12.63
2018-04-19T19:41:05.283Z,11.07
2018-04-19T19:43:33.668Z,16.90
2018-04-19T19:46:01.345Z,12.80
2018-04-19T19:48:29.046Z,12.03
2018-04-19T19:50:56.668Z,10.55
2018-04-19T19:53:24.668Z,10.90
2018-04-19T19:55:52.432Z,11.13
2018-04-19T19:58:20.092Z,10.63
2018-04-19T20:00:47.715Z,11.20
2018-04-19T20:03:15.367Z,13.70
2018-04-19T20:05:43.270Z,10.83
2018-04-19T20:08:12.081Z,11.15
2018-04-19T20:10:39.739Z,10.20
2018-04-19T20:13:07.383Z,10.83
2018-04-19T20:15:35.048Z,10.77
2018-04-19T20:18:02.668Z,10.83
2018-04-19T20:20:30.324Z,10.20
2018-04-19T20:22:57.966Z,10.57
2018-04-19T20:25:25.588Z,10.77
2018-04-19T20:27:53.347Z,11.20
2018-04-19T20:30:21.007Z,11.23
2018-04-19T20:32:48.658Z,11.57
2018-04-19T20:35:16.271Z,10.60
2018-04-19T20:37:43.932Z,10.97
2018-04-19T20:40:11.588Z,11.50
2018-04-19T20:42:40.013Z,11.80
2018-04-19T20:45:08.505Z,11.73
2018-04-19T20:47:36.124Z,11.37
2018-04-19T20:50:03.744Z,12.40
2018-04-19T20:52:31.411Z,10.17
2018-04-19T20:54:59.060Z,14.27
2018-04-19T20:57:26.727Z,12.03
2018-04-19T20:59:54.380Z,11.93
2018-04-19T21:02:22.000Z,12.03
2018-04-19T21:04:49.658Z,11.30
2018-04-19T21:07:17.276Z,10.80
2018-04-19T21:09:45.731Z,11.43
2018-04-19T21:12:13.347Z,14.13
2018-04-19T21:14:40.963Z,14.70
2018-04-19T21:17:09.396Z,12.43
2018-04-19T21:19:37.335Z,12.20
2018-04-19T21:22:05.976Z,13.10
2018-04-19T21:24:33.649Z,11.47
2018-04-19T21:27:01.289Z,12.95
2018-04-19T21:29:28.930Z,12.60
2018-04-19T21:31:56.575Z,13.70
2018-04-19T21:34:24.190Z,14.43
2018-04-19T21:36:51.847Z,13.65
2018-04-19T21:39:21.477Z,15.87
2018-04-19T21:41:49.134Z,13.73
2018-04-19T21:44:16.951Z,14.20
2018-04-19T21:46:44.616Z,13.63
2018-04-19T21:49:12.397Z,16.70
2018-04-19T21:51:40.445Z,15.35
2018-04-19T21:54:08.061Z,13.35
2018-04-19T21:56:36.236Z,14.38
2018-04-19T21:59:04.271Z,13.65
2018-04-19T22:01:32.178Z,13.73
2018-04-19T22:04:00.927Z,13.30
2018-04-19T22:06:28.595Z,13.83
2018-04-19T22:08:58.251Z,14.27
2018-04-19T22:11:26.201Z,13.30
2018-04-19T22:13:55.030Z,15.57
2018-04-19T22:16:23.212Z,13.03
2018-04-19T22:18:52.015Z,13.80
2018-04-19T22:21:21.655Z,12.97
2018-04-19T22:23:49.662Z,13.20
2018-04-19T22:26:21.370Z,13.48
2018-04-19T22:28:49.836Z,12.57
2018-04-19T22:31:18.216Z,13.00
2018-04-19T22:33:45.971Z,14.00
2018-04-19T22:36:15.271Z,14.87
2018-04-19T22:38:43.863Z,13.70
2018-04-19T22:41:12.259Z,14.17
2018-04-19T22:43:40.247Z,13.63
2018-04-19T22:46:07.935Z,13.50
2018-04-19T22:48:35.555Z,13.40
2018-04-19T22:51:03.480Z,12.20
2018-04-19T22:53:33.127Z,13.97
2018-04-19T22:56:00.765Z,13.77
2018-04-19T22:58:28.474Z,15.13
2018-04-19T23:00:57.001Z,15.30
2018-04-19T23:03:24.839Z,12.57
2018-04-19T23:05:52.456Z,15.63
2018-04-19T23:08:20.124Z,13.17
2018-04-19T23:10:47.823Z,13.98
2018-04-19T23:13:15.479Z,13.53
2018-04-19T23:15:43.111Z,14.10
2018-04-19T23:18:11.014Z,13.73
2018-04-19T23:20:40.091Z,14.63
2018-04-19T23:23:07.756Z,15.03
2018-04-19T23:25:35.403Z,14.70
2018-04-19T23:28:03.166Z,14.73
2018-04-19T23:30:31.194Z,14.43
2018-04-19T23:32:59.572Z,14.75
2018-04-19T23:35:30.375Z,15.30
2018-04-19T23:37:58.043Z,13.30
2018-04-19T23:40:25.674Z,13.57
2018-04-19T23:42:53.524Z,14.15
2018-04-19T23:45:21.215Z,13.95
2018-04-19T23:47:50.512Z,13.52
2018-04-19T23:50:18.562Z,12.70
2018-04-19T23:52:46.183Z,14.00
2018-04-19T23:55:13.872Z,15.93
2018-04-19T23:57:43.569Z,14.43
